Terminal Aerodrome Forecast
Issued by NWS Cleveland, OH

Home | Current Version | Previous Version | Graphics & Text | Print | Product List | Glossary Off
Versions: 1 2 3 4 5 6 7 8 9 10 11 12 13 14 15 16 17 18 19 20 21 22 23 24 25 26 27

149
FTUS41 KCLE 231729
TAFCLE
TAF
KCLE 231729Z 2318/2424 23012KT P6SM BKN050
      TEMPO 2318/2321 5SM -SHRA OVC015
     FM232100 24012KT P6SM OVC035
      TEMPO 2321/2324 BKN025
     FM240000 27008KT P6SM OVC025
     FM240300 30008KT P6SM BKN035=

USA.gov is the U.S. government's official web portal to all federal, state and local government web resources and services.